Weather at Gormanstown Aerodrome [CLOSED]

Public forecast

Using degrees Celsius for public forecast. Weather courtesy of forecast.io.

Closest aviation weather report (METAR) to Gormanstown Aerodrome

Closest report is Dublin Airport, 12.4 nm (23.0 km) S.

2024/05/26 18:00 (retrieved 19 minutes ago)

EIDW 261800Z 23007KT 190V260 4500 SHRA FEW007 FEW020CB BKN045 12/11 Q1008 BECMG 9999

Closest aviation forecast (TAF) to Gormanstown Aerodrome

Closest forecast is Dublin Airport, 12.4 nm (23.0 km) S.

2024/05/26 18:11 (retrieved 8 minutes ago)

TAF EIDW 261700Z 2618/2718 25008KT 9999 FEW008 BKN050 TEMPO 2618/2620 -SHRA FEW018CB PROB30 TEMPO 2618/2619 4000 SHRA SCT018CB BECMG 2716/2718 21007KT PROB40 TEMPO 2715/2718 -SHRA FEW022CB